Time;durP1;ratioP1;P1;durP2;ratioP2;P2;SDS_P1;SDS_P2;PMS_P1;PMS_P2;Temp;Humidity;BMP_temperature;BMP_pressure;BME280_temperature;BME280_humidity;BME280_pressure;Samples;Min_cycle;Max_cycle;Signal;HPM_P1;HPM_P2
2022/03/22 00:01:59;;;;;;;19.83;16.10;;;7.80;40.40;;;;;;5099911;28;20185;-35
2022/03/22 00:04:24;;;;;;;16.93;14.67;;;7.70;40.40;;;;;;5101776;28;20173;-36
2022/03/22 00:06:50;;;;;;;18.20;16.30;;;7.70;40.60;;;;;;5100827;28;20574;-38
2022/03/22 00:09:16;;;;;;;16.37;14.70;;;7.60;40.70;;;;;;5099590;28;20200;-36
2022/03/22 00:11:42;;;;;;;16.70;15.00;;;7.60;40.90;;;;;;5098928;28;20407;-35
2022/03/22 00:14:08;;;;;;;20.00;15.70;;;7.50;41.50;;;;;;5100150;28;20177;-36
2022/03/22 00:16:35;;;;;;;17.77;14.83;;;7.40;41.10;;;;;;5099421;28;20567;-34
2022/03/22 00:19:01;;;;;;;18.97;14.93;;;7.30;41.20;;;;;;5098532;28;20395;-35
2022/03/22 00:21:26;;;;;;;16.90;15.10;;;7.30;41.40;;;;;;5098593;28;20419;-37
2022/03/22 00:23:52;;;;;;;19.37;15.83;;;7.20;41.40;;;;;;5098759;28;20172;-36
2022/03/22 00:26:18;;;;;;;20.13;15.37;;;7.20;41.60;;;;;;5098431;28;20181;-37
2022/03/22 00:28:45;;;;;;;20.43;15.77;;;7.10;41.70;;;;;;5097656;28;20187;-33
2022/03/22 00:31:11;;;;;;;20.33;15.40;;;7.10;41.90;;;;;;5098686;28;20289;-35
2022/03/22 00:33:37;;;;;;;16.90;15.20;;;7.00;42.00;;;;;;5097808;28;20419;-35
2022/03/22 00:36:04;;;;;;;17.93;15.80;;;7.00;42.10;;;;;;5099293;28;20470;-36
2022/03/22 00:38:30;;;;;;;16.77;14.97;;;6.90;42.20;;;;;;5114978;28;20521;-36
2022/03/22 00:40:55;;;;;;;17.43;15.47;;;6.80;42.30;;;;;;5100391;28;20497;-37
2022/03/22 00:43:22;;;;;;;17.33;15.07;;;6.80;42.50;;;;;;5097676;28;20530;-36
2022/03/22 00:45:48;;;;;;;19.00;15.80;;;6.80;42.70;;;;;;5100112;28;20200;-40
2022/03/22 00:48:14;;;;;;;20.53;15.77;;;6.70;42.80;;;;;;5099226;28;20503;-37
2022/03/22 00:50:42;;;;;;;21.43;16.07;;;6.70;43.00;;;;;;5100475;28;20200;-37
2022/03/22 00:53:08;;;;;;;19.67;16.03;;;6.60;43.20;;;;;;5099536;28;20452;-35
2022/03/22 00:55:35;;;;;;;18.07;15.50;;;6.60;43.40;;;;;;5099934;28;20492;-36
2022/03/22 00:58:02;;;;;;;17.60;15.70;;;6.50;43.50;;;;;;5098063;28;20427;-37
2022/03/22 01:00:28;;;;;;;20.30;16.17;;;6.40;43.60;;;;;;5099135;28;20408;-36
2022/03/22 01:02:56;;;;;;;18.20;15.27;;;6.40;43.80;;;;;;5098420;28;20430;-36
2022/03/22 01:05:23;;;;;;;18.03;14.53;;;6.40;43.90;;;;;;5100165;28;20476;-34
2022/03/22 01:07:54;;;;;;;17.70;15.37;;;6.30;43.90;;;;;;5099793;28;20532;-35
2022/03/22 01:10:21;;;;;;;20.83;16.60;;;6.30;44.10;;;;;;5098750;28;20481;-36
2022/03/22 01:12:48;;;;;;;17.47;15.13;;;6.30;44.20;;;;;;5099843;28;20501;-35
2022/03/22 01:15:20;;;;;;;19.20;15.70;;;6.20;44.30;;;;;;5099959;28;20418;-36
2022/03/22 01:17:48;;;;;;;17.70;15.10;;;6.20;44.50;;;;;;5099410;28;20431;-37
2022/03/22 01:20:16;;;;;;;18.73;15.10;;;6.10;44.70;;;;;;5099953;28;20423;-37
2022/03/22 01:22:44;;;;;;;18.73;16.30;;;6.10;44.80;;;;;;5098154;28;20445;-34
2022/03/22 01:25:15;;;;;;;18.40;15.47;;;6.00;44.90;;;;;;5099874;28;20529;-35
2022/03/22 01:27:42;;;;;;;19.70;16.47;;;6.00;45.00;;;;;;5097687;28;20735;-37
2022/03/22 01:30:09;;;;;;;20.27;15.00;;;6.00;45.10;;;;;;5099414;28;20571;-37
2022/03/22 01:32:35;;;;;;;17.70;15.03;;;5.90;45.20;;;;;;5097925;28;20441;-36
2022/03/22 01:35:05;;;;;;;15.10;13.50;;;5.90;45.40;;;;;;5099018;28;20746;-34
2022/03/22 01:37:31;;;;;;;18.40;15.60;;;5.90;45.50;;;;;;5098288;28;20184;-38
2022/03/22 01:39:57;;;;;;;20.63;14.90;;;5.80;45.60;;;;;;5100412;28;20439;-37
2022/03/22 01:42:24;;;;;;;18.50;16.50;;;5.80;45.70;;;;;;5116878;28;20437;-36
2022/03/22 01:44:51;;;;;;;19.17;16.37;;;5.80;45.90;;;;;;5117392;28;20524;-39
2022/03/22 01:47:19;;;;;;;19.97;16.33;;;5.70;46.00;;;;;;5118967;28;20417;-34
2022/03/22 01:49:44;;;;;;;19.57;16.43;;;5.70;46.20;;;;;;5117234;28;20478;-36
2022/03/22 01:52:19;;;;;;;18.03;15.90;;;5.70;46.40;;;;;;5118196;28;20885;-36
2022/03/22 01:54:50;;;;;;;16.83;14.93;;;5.60;46.50;;;;;;5117191;28;20183;-31
2022/03/22 01:57:20;;;;;;;18.60;15.93;;;5.60;46.60;;;;;;5119252;28;20679;-34
2022/03/22 01:59:46;;;;;;;18.00;16.10;;;5.60;46.80;;;;;;5118518;28;20461;-35
2022/03/22 02:07:46;;;;;;;21.17;16.50;;;5.50;47.30;;;;;;5117441;28;20449;-33
2022/03/22 02:13:34;;;;;;;18.03;15.97;;;5.40;47.50;;;;;;5118519;28;20539;-35
2022/03/22 02:16:03;;;;;;;19.20;16.00;;;5.40;47.70;;;;;;5116808;28;20438;-35
2022/03/22 02:18:29;;;;;;;18.37;15.90;;;5.40;47.80;;;;;;5118944;28;20475;-35
2022/03/22 02:20:56;;;;;;;16.80;14.73;;;5.40;47.90;;;;;;5117305;28;20729;-33
2022/03/22 02:23:43;;;;;;;16.50;14.67;;;5.40;48.00;;;;;;5118171;28;20633;-33
2022/03/22 02:26:08;;;;;;;20.40;16.13;;;5.30;48.00;;;;;;5117450;28;20855;-33
2022/03/22 02:28:34;;;;;;;20.37;16.30;;;5.30;48.10;;;;;;5118692;28;20449;-34
2022/03/22 02:31:01;;;;;;;17.90;16.00;;;5.30;48.20;;;;;;5117305;28;20594;-33
2022/03/22 02:33:26;;;;;;;17.97;16.00;;;5.20;48.30;;;;;;5118829;28;20176;-32
2022/03/22 02:35:52;;;;;;;18.93;16.33;;;5.20;48.50;;;;;;5118357;28;20470;-36
2022/03/22 02:38:18;;;;;;;18.43;15.60;;;5.20;48.60;;;;;;5116628;28;20245;-36
2022/03/22 02:40:45;;;;;;;17.07;15.37;;;5.20;48.70;;;;;;5118651;28;20184;-36
2022/03/22 02:43:11;;;;;;;18.73;15.50;;;5.20;48.80;;;;;;5117847;28;20275;-37
2022/03/22 02:45:37;;;;;;;17.93;16.03;;;5.10;48.80;;;;;;5118957;28;20452;-34
2022/03/22 02:48:02;;;;;;;17.40;15.60;;;5.10;48.90;;;;;;5117447;28;20249;-35
2022/03/22 02:50:28;;;;;;;17.67;15.80;;;5.10;49.10;;;;;;5117216;28;20625;-35
2022/03/22 02:52:54;;;;;;;18.17;15.60;;;5.10;49.20;;;;;;5117704;28;20476;-39
2022/03/22 02:55:21;;;;;;;19.40;16.73;;;5.10;49.30;;;;;;5118582;28;20183;-35
2022/03/22 02:57:47;;;;;;;18.03;15.40;;;5.00;49.40;;;;;;5117389;28;20181;-37
2022/03/22 03:00:14;;;;;;;19.40;17.17;;;5.00;49.60;;;;;;5118441;28;20413;-33
2022/03/22 03:02:49;;;;;;;20.20;16.97;;;5.00;49.70;;;;;;5116699;28;20418;-34
2022/03/22 03:05:15;;;;;;;17.23;15.43;;;4.90;49.80;;;;;;5118927;28;20459;-34
2022/03/22 03:07:41;;;;;;;18.57;16.57;;;4.90;49.90;;;;;;5115247;28;20705;-36
2022/03/22 03:10:08;;;;;;;20.93;17.50;;;4.90;50.10;;;;;;5117032;28;20465;-34
2022/03/22 03:12:34;;;;;;;18.97;16.00;;;4.80;50.20;;;;;;5117913;28;20497;-33
2022/03/22 03:15:00;;;;;;;17.43;15.47;;;4.80;50.40;;;;;;5117906;28;20425;-37
2022/03/22 03:17:26;;;;;;;38.23;26.50;;;4.80;50.40;;;;;;5116591;28;20402;-35
2022/03/22 03:19:52;;;;;;;37.67;28.13;;;4.80;50.50;;;;;;5118496;28;20673;-34
2022/03/22 03:22:18;;;;;;;37.27;27.83;;;4.80;50.70;;;;;;5116506;28;20237;-36
2022/03/22 03:24:43;;;;;;;36.70;25.83;;;4.80;50.70;;;;;;5114691;28;20697;-35
2022/03/22 03:27:09;;;;;;;26.83;21.43;;;4.70;50.90;;;;;;5115846;28;20418;-33
2022/03/22 03:29:34;;;;;;;29.60;21.20;;;4.70;51.10;;;;;;5114875;28;20207;-32
2022/03/22 03:32:00;;;;;;;24.40;19.17;;;4.70;51.20;;;;;;5115871;28;20176;-38
2022/03/22 03:34:25;;;;;;;24.70;18.80;;;4.70;51.30;;;;;;5114434;28;20245;-34
2022/03/22 03:36:51;;;;;;;20.50;17.50;;;4.70;51.30;;;;;;5116715;28;20621;-35
2022/03/22 03:39:17;;;;;;;22.27;17.33;;;4.70;51.50;;;;;;5117727;28;20188;-34
2022/03/22 03:41:59;;;;;;;21.63;18.17;;;4.60;51.60;;;;;;5117330;28;20202;-34
2022/03/22 03:47:15;;;;;;;19.93;16.63;;;4.60;51.90;;;;;;5116917;28;20758;-35
2022/03/22 03:49:42;;;;;;;19.23;15.60;;;4.60;52.50;;;;;;5117511;28;20507;-37
2022/03/22 03:52:10;;;;;;;20.00;16.33;;;4.50;52.20;;;;;;5118112;28;20615;-35
2022/03/22 03:54:37;;;;;;;18.13;16.33;;;4.50;52.40;;;;;;5116931;28;20516;-38
2022/03/22 03:57:03;;;;;;;19.73;16.50;;;4.40;52.60;;;;;;5117870;28;20425;-34
2022/03/22 03:59:29;;;;;;;17.13;15.10;;;4.40;52.80;;;;;;5117037;28;20457;-34
2022/03/22 04:01:54;;;;;;;19.50;16.47;;;4.40;52.90;;;;;;5117602;28;20705;-37
2022/03/22 04:04:20;;;;;;;17.90;15.63;;;4.40;53.10;;;;;;5117209;28;20824;-35
2022/03/22 04:06:47;;;;;;;17.47;15.50;;;4.30;53.20;;;;;;5117995;28;20173;-33
2022/03/22 04:09:16;;;;;;;17.50;15.20;;;4.30;53.20;;;;;;5116359;28;20436;-36
2022/03/22 04:11:42;;;;;;;17.67;15.60;;;4.30;53.30;;;;;;5117884;28;20406;-34
2022/03/22 04:14:08;;;;;;;17.93;15.87;;;4.30;53.50;;;;;;5116800;28;20426;-35
2022/03/22 04:16:34;;;;;;;19.53;16.03;;;4.30;53.60;;;;;;5117725;28;20687;-34
2022/03/22 04:19:00;;;;;;;23.07;17.57;;;4.30;53.70;;;;;;5118777;28;20260;-36
2022/03/22 04:21:26;;;;;;;19.53;15.93;;;4.20;53.70;;;;;;5120797;28;20186;-38
2022/03/22 04:23:51;;;;;;;21.27;16.40;;;4.20;53.90;;;;;;5118209;28;20422;-34
2022/03/22 04:26:17;;;;;;;21.70;17.00;;;4.20;54.10;;;;;;5119933;28;20172;-36
2022/03/22 04:34:13;;;;;;;19.57;16.83;;;4.10;54.40;;;;;;5118167;28;20737;-36
2022/03/22 04:36:39;;;;;;;20.33;15.87;;;4.10;54.60;;;;;;5118786;28;20474;-38
2022/03/22 04:39:04;;;;;;;18.70;15.23;;;4.10;54.90;;;;;;5119773;28;20261;-33
2022/03/22 04:41:30;;;;;;;19.03;15.37;;;4.10;55.20;;;;;;5120725;28;20163;-37
2022/03/22 04:43:56;;;;;;;19.30;15.40;;;4.00;55.30;;;;;;5119662;28;20514;-33
2022/03/22 04:46:22;;;;;;;19.97;16.83;;;4.00;55.50;;;;;;5120769;28;20620;-35
2022/03/22 04:48:48;;;;;;;19.90;17.00;;;4.00;55.70;;;;;;5119966;28;20422;-33
2022/03/22 04:56:43;;;;;;;18.60;15.33;;;4.00;56.10;;;;;;5119434;28;20748;-33
2022/03/22 04:59:10;;;;;;;18.43;15.80;;;4.00;56.20;;;;;;5119048;28;20445;-34
2022/03/22 05:01:35;;;;;;;18.67;16.00;;;3.90;56.30;;;;;;5118255;28;20573;-36
2022/03/22 05:04:01;;;;;;;18.53;16.30;;;3.90;56.50;;;;;;5117408;28;20411;-42
2022/03/22 05:06:27;;;;;;;21.60;16.23;;;3.90;56.70;;;;;;5117958;28;20172;-43
2022/03/22 05:08:56;;;;;;;18.43;16.17;;;3.90;56.90;;;;;;5117514;28;20640;-41
2022/03/22 05:11:22;;;;;;;20.37;15.67;;;3.90;56.90;;;;;;5115851;28;20430;-42
2022/03/22 05:13:48;;;;;;;19.77;17.07;;;4.00;56.90;;;;;;5100031;28;20777;-40
2022/03/22 05:16:14;;;;;;;18.10;16.20;;;4.00;56.90;;;;;;5117046;28;20434;-41
2022/03/22 05:18:41;;;;;;;21.80;16.37;;;4.00;56.70;;;;;;5118073;28;20913;-40
2022/03/22 05:21:07;;;;;;;20.17;16.50;;;4.00;56.60;;;;;;5118002;28;20516;-43
2022/03/22 05:23:36;;;;;;;16.23;14.60;;;4.00;56.60;;;;;;5119296;28;20458;-43
2022/03/22 05:26:04;;;;;;;19.93;15.10;;;4.00;56.70;;;;;;5117020;28;20422;-43
2022/03/22 05:28:30;;;;;;;18.03;15.50;;;4.00;56.80;;;;;;5117734;28;20414;-43
2022/03/22 05:30:58;;;;;;;21.13;16.60;;;4.00;56.90;;;;;;5116595;27;20717;-38
2022/03/22 05:33:23;;;;;;;19.40;16.10;;;4.00;56.90;;;;;;5115032;28;21084;-39
2022/03/22 05:35:49;;;;;;;19.40;16.63;;;4.00;57.00;;;;;;5102404;28;20565;-40
2022/03/22 05:38:15;;;;;;;18.53;15.20;;;4.00;57.20;;;;;;5096658;28;20276;-41
2022/03/22 05:40:41;;;;;;;21.00;16.57;;;4.00;57.40;;;;;;5095768;28;20307;-41
2022/03/22 05:43:07;;;;;;;17.53;15.20;;;4.10;57.60;;;;;;5096655;28;20184;-42
2022/03/22 05:45:33;;;;;;;18.93;16.40;;;4.10;57.60;;;;;;5095397;28;20509;-40
2022/03/22 05:48:00;;;;;;;18.83;16.03;;;4.10;57.80;;;;;;5096432;28;20443;-42
2022/03/22 05:50:26;;;;;;;19.00;15.37;;;4.10;57.90;;;;;;5095039;28;20491;-40
2022/03/22 05:52:52;;;;;;;19.93;17.07;;;4.10;58.00;;;;;;5096539;28;20458;-41
2022/03/22 05:55:18;;;;;;;21.13;16.57;;;4.10;58.10;;;;;;5094820;28;20459;-42
2022/03/22 05:57:44;;;;;;;17.97;16.03;;;4.20;58.10;;;;;;5096491;28;20173;-40
2022/03/22 06:00:11;;;;;;;17.40;15.60;;;4.20;57.90;;;;;;5094427;28;20213;-42
2022/03/22 06:02:38;;;;;;;20.27;17.10;;;4.30;57.90;;;;;;5096081;28;20449;-43
2022/03/22 06:05:11;;;;;;;19.20;16.40;;;4.40;57.80;;;;;;5092930;28;20694;-41
2022/03/22 06:07:40;;;;;;;21.53;16.63;;;4.50;57.70;;;;;;5096173;28;20823;-43
2022/03/22 06:10:06;;;;;;;20.93;16.30;;;4.60;57.70;;;;;;5093744;28;20452;-42
2022/03/22 06:12:39;;;;;;;18.47;16.27;;;4.80;57.50;;;;;;5094496;28;20415;-42
2022/03/22 06:15:15;;;;;;;18.90;15.93;;;4.90;57.10;;;;;;5094083;28;20684;-42
2022/03/22 06:17:47;;;;;;;18.63;16.63;;;5.00;56.80;;;;;;5090461;28;20428;-42
2022/03/22 06:20:13;;;;;;;16.37;14.63;;;5.20;55.90;;;;;;5089090;28;21078;-41
2022/03/22 06:22:39;;;;;;;21.50;16.10;;;5.40;55.00;;;;;;5090743;28;20442;-43
2022/03/22 06:25:05;;;;;;;21.33;18.40;;;5.50;54.30;;;;;;5088027;28;21045;-42
2022/03/22 06:27:33;;;;;;;18.77;16.30;;;5.80;53.90;;;;;;5088194;28;20415;-40
2022/03/22 06:29:59;;;;;;;17.93;16.03;;;5.90;53.60;;;;;;5088383;28;20193;-42
2022/03/22 06:32:24;;;;;;;19.60;15.80;;;6.10;53.10;;;;;;5088575;28;20411;-42
2022/03/22 06:34:52;;;;;;;21.13;17.20;;;6.30;52.60;;;;;;5089592;28;20195;-42
2022/03/22 06:37:17;;;;;;;19.10;16.03;;;6.50;51.90;;;;;;5090793;28;20176;-40
2022/03/22 06:39:43;;;;;;;20.30;17.07;;;6.70;51.40;;;;;;5105941;28;20465;-39
2022/03/22 06:42:09;;;;;;;20.40;16.27;;;6.90;51.00;;;;;;5111071;28;20191;-43
2022/03/22 06:44:37;;;;;;;23.03;17.77;;;7.20;50.60;;;;;;5110334;28;20809;-41
2022/03/22 06:47:04;;;;;;;20.00;17.20;;;7.40;50.60;;;;;;5106619;28;20566;-43
2022/03/22 06:49:30;;;;;;;18.30;16.07;;;7.60;49.60;;;;;;5106240;28;20426;-41
2022/03/22 06:51:56;;;;;;;18.60;16.73;;;7.90;49.10;;;;;;5107005;28;20541;-40
2022/03/22 06:54:22;;;;;;;18.77;16.00;;;8.10;48.30;;;;;;5107428;28;20188;-41
2022/03/22 06:56:48;;;;;;;19.83;17.10;;;8.40;47.60;;;;;;5105966;28;20508;-43
2022/03/22 06:59:14;;;;;;;19.13;17.23;;;8.70;47.00;;;;;;5106076;28;20183;-41
2022/03/22 07:01:40;;;;;;;18.60;15.73;;;9.00;46.40;;;;;;5107718;28;20728;-43
2022/03/22 07:04:05;;;;;;;18.93;17.00;;;9.30;45.90;;;;;;5109623;28;20156;-43
2022/03/22 07:06:31;;;;;;;19.97;16.23;;;9.60;45.30;;;;;;5106760;28;20429;-43
2022/03/22 07:08:56;;;;;;;20.40;17.67;;;9.80;44.70;;;;;;5109309;28;20209;-43
2022/03/22 07:14:06;;;;;;;19.33;17.30;;;10.40;42.90;;;;;;5107301;28;20198;-43
2022/03/22 07:16:32;;;;;;;18.43;16.30;;;10.70;42.50;;;;;;5106148;28;20430;-41
2022/03/22 07:18:57;;;;;;;18.60;16.70;;;11.00;42.10;;;;;;5117908;28;20191;-41
2022/03/22 07:21:23;;;;;;;20.20;18.00;;;11.20;41.40;;;;;;5130131;28;20471;-43
2022/03/22 07:23:49;;;;;;;19.07;15.53;;;11.50;41.00;;;;;;5130274;27;20218;-43
2022/03/22 07:26:16;;;;;;;17.27;15.57;;;11.70;40.70;;;;;;5130134;28;20448;-43
2022/03/22 07:28:42;;;;;;;19.90;17.90;;;12.00;40.30;;;;;;5129820;27;20244;-43
2022/03/22 07:31:07;;;;;;;19.23;17.30;;;12.20;39.80;;;;;;5130184;27;20865;-43
2022/03/22 07:33:33;;;;;;;19.53;17.43;;;12.50;39.50;;;;;;5130977;28;20428;-42
2022/03/22 07:35:59;;;;;;;18.57;16.67;;;12.80;39.20;;;;;;5131997;28;20560;-44
2022/03/22 07:38:24;;;;;;;18.20;16.23;;;13.10;38.80;;;;;;5130829;28;20248;-43
2022/03/22 07:40:50;;;;;;;18.77;16.87;;;13.40;38.30;;;;;;5130996;28;20211;-40
2022/03/22 07:43:16;;;;;;;17.93;15.00;;;13.70;37.90;;;;;;5129614;28;20608;-43
2022/03/22 07:45:41;;;;;;;17.40;15.60;;;14.00;37.50;;;;;;5131211;27;20172;-43
2022/03/22 07:48:07;;;;;;;18.80;16.10;;;14.40;37.20;;;;;;5128720;28;20187;-43
2022/03/22 07:53:17;;;;;;;18.93;16.93;;;15.00;36.10;;;;;;5128300;27;20507;-43
2022/03/22 07:55:43;;;;;;;18.90;17.00;;;15.40;35.50;;;;;;5131034;27;20700;-43
2022/03/22 07:58:09;;;;;;;17.70;15.90;;;15.70;35.10;;;;;;5131264;27;20188;-43
2022/03/22 08:00:40;;;;;;;18.00;16.10;;;16.10;34.70;;;;;;5131774;27;20460;-43
2022/03/22 08:03:09;;;;;;;18.03;16.20;;;16.40;34.20;;;;;;5131626;27;20639;-43
2022/03/22 08:05:35;;;;;;;18.20;16.30;;;16.90;33.90;;;;;;5132001;27;20428;-43
2022/03/22 08:08:01;;;;;;;19.90;18.00;;;17.30;33.50;;;;;;5131764;27;20421;-43
2022/03/22 08:10:27;;;;;;;18.97;17.07;;;17.70;32.90;;;;;;5132995;27;20401;-41
2022/03/22 08:12:56;;;;;;;19.20;17.40;;;18.20;32.70;;;;;;5130493;27;20494;-43
2022/03/22 08:15:21;;;;;;;17.87;16.07;;;18.60;32.40;;;;;;5132589;27;20460;-43
2022/03/22 08:17:47;;;;;;;19.63;17.73;;;19.10;32.20;;;;;;5132265;27;20813;-42
2022/03/22 08:20:13;;;;;;;19.07;17.07;;;19.60;31.40;;;;;;5130027;27;20196;-42
2022/03/22 08:22:53;;;;;;;18.60;16.87;;;20.10;31.00;;;;;;5130367;27;20397;-43
2022/03/22 08:25:24;;;;;;;17.50;15.90;;;20.70;30.40;;;;;;5131938;27;20462;-43
2022/03/22 08:27:51;;;;;;;19.50;17.50;;;21.20;29.60;;;;;;5122790;27;20801;-43
2022/03/22 08:30:20;;;;;;;19.27;17.37;;;21.70;28.90;;;;;;5114749;27;20421;-43
2022/03/22 08:32:52;;;;;;;20.43;18.40;;;22.20;28.60;;;;;;5113062;28;20838;-44
2022/03/22 08:35:19;;;;;;;18.80;16.93;;;22.70;28.30;;;;;;5112640;28;20474;-44
2022/03/22 08:37:45;;;;;;;18.93;17.07;;;23.00;27.70;;;;;;5112816;28;20548;-42
2022/03/22 08:40:13;;;;;;;19.17;17.30;;;23.40;27.50;;;;;;5111674;28;20756;-44
2022/03/22 08:42:43;;;;;;;19.67;17.67;;;24.00;27.40;;;;;;5111696;28;20953;-44
2022/03/22 08:45:20;;;;;;;18.50;16.77;;;24.60;27.20;;;;;;5114473;28;20414;-44
2022/03/22 08:47:47;;;;;;;18.30;16.63;;;24.90;26.70;;;;;;5113769;28;20422;-44
2022/03/22 08:50:15;;;;;;;19.80;17.80;;;25.40;26.40;;;;;;5110047;28;20528;-44
2022/03/22 08:52:41;;;;;;;19.90;17.90;;;25.70;26.00;;;;;;5112142;27;20842;-44
2022/03/22 08:55:08;;;;;;;19.10;17.40;;;26.30;25.70;;;;;;5112895;28;20449;-44
2022/03/22 08:57:35;;;;;;;19.17;17.30;;;26.80;25.50;;;;;;5111186;28;20406;-44
2022/03/22 09:00:01;;;;;;;18.70;17.07;;;27.10;25.10;;;;;;5114422;28;20460;-44
2022/03/22 09:02:27;;;;;;;18.60;17.00;;;27.70;24.90;;;;;;5115052;27;20407;-43
2022/03/22 09:07:36;;;;;;;16.73;15.13;;;28.80;24.30;;;;;;5113040;28;20445;-44
2022/03/22 09:10:02;;;;;;;10.87;9.70;;;29.40;24.70;;;;;;5108502;28;20414;-45
2022/03/22 09:12:28;;;;;;;10.13;9.23;;;29.20;28.60;;;;;;5098195;28;20183;-45
2022/03/22 09:14:54;;;;;;;8.63;7.83;;;29.40;28.90;;;;;;5090785;28;20183;-44
2022/03/22 09:17:20;;;;;;;9.07;8.10;;;29.50;28.90;;;;;;5089963;28;20198;-45
2022/03/22 09:19:46;;;;;;;10.37;9.47;;;29.70;29.10;;;;;;5091519;28;20318;-45
2022/03/22 09:22:14;;;;;;;8.60;7.80;;;29.90;28.80;;;;;;5110017;28;20426;-45
2022/03/22 09:24:40;;;;;;;9.50;8.23;;;30.10;29.10;;;;;;5110510;28;20479;-45
2022/03/22 09:27:05;;;;;;;11.33;9.40;;;30.30;28.60;;;;;;5112731;28;20412;-45
2022/03/22 09:29:31;;;;;;;9.23;8.50;;;30.40;28.10;;;;;;5111172;28;20387;-45
2022/03/22 09:31:56;;;;;;;10.33;9.43;;;30.50;28.20;;;;;;5109438;28;20182;-45
2022/03/22 09:34:24;;;;;;;13.30;10.70;;;30.50;28.10;;;;;;5109500;28;20160;-46
2022/03/22 09:36:51;;;;;;;10.70;9.80;;;30.60;27.70;;;;;;5109637;28;20243;-45
2022/03/22 09:39:19;;;;;;;12.03;10.87;;;30.80;27.80;;;;;;5111295;28;20771;-45
2022/03/22 09:41:45;;;;;;;13.43;12.23;;;30.90;27.60;;;;;;5110329;28;20468;-45
2022/03/22 09:44:11;;;;;;;12.27;10.50;;;31.00;26.70;;;;;;5110103;28;20822;-45
2022/03/22 09:46:37;;;;;;;11.40;10.50;;;30.90;27.20;;;;;;5113344;28;20403;-45
2022/03/22 09:49:03;;;;;;;12.10;11.10;;;30.90;27.20;;;;;;5113073;28;20405;-45
2022/03/22 09:51:48;;;;;;;12.37;11.13;;;30.90;27.20;;;;;;5111271;28;20590;-45
2022/03/22 09:54:16;;;;;;;13.43;12.10;;;30.90;27.20;;;;;;5112272;28;20382;-47
2022/03/22 09:56:43;;;;;;;13.30;12.20;;;31.20;27.00;;;;;;5110635;28;20408;-45
2022/03/22 09:59:09;;;;;;;11.43;10.43;;;31.50;27.20;;;;;;5112295;28;20389;-46
2022/03/22 10:01:36;;;;;;;13.37;12.27;;;31.70;26.80;;;;;;5109789;28;20384;-46
2022/03/22 10:04:07;;;;;;;12.50;11.37;;;32.00;26.50;;;;;;5111569;28;20833;-47
2022/03/22 10:06:34;;;;;;;12.07;11.07;;;32.40;26.60;;;;;;5109887;28;20407;-46
2022/03/22 10:09:01;;;;;;;12.63;11.63;;;32.80;26.30;;;;;;5109407;28;20411;-46
2022/03/22 10:11:41;;;;;;;12.77;11.73;;;33.10;26.10;;;;;;5107183;28;20467;-44
2022/03/22 10:14:08;;;;;;;15.83;13.30;;;33.50;25.80;;;;;;5109868;28;20441;-46
2022/03/22 10:16:45;;;;;;;13.73;12.63;;;33.90;25.30;;;;;;5108896;28;20672;-46
2022/03/22 10:19:24;;;;;;;13.07;12.00;;;34.30;25.40;;;;;;5110089;28;20379;-46
2022/03/22 10:21:50;;;;;;;14.80;13.60;;;34.80;25.20;;;;;;5106874;28;20718;-46
2022/03/22 10:24:16;;;;;;;13.13;12.07;;;35.30;24.50;;;;;;5108458;28;20470;-45
2022/03/22 10:26:46;;;;;;;13.40;12.40;;;35.90;24.40;;;;;;5107696;28;20432;-47
2022/03/22 10:29:14;;;;;;;14.23;13.13;;;36.30;24.00;;;;;;5109290;28;20172;-47
2022/03/22 10:31:40;;;;;;;13.47;12.37;;;36.80;23.60;;;;;;5109160;28;20509;-47
2022/03/22 10:34:07;;;;;;;11.53;10.63;;;37.30;23.50;;;;;;5111307;28;20470;-47
2022/03/22 10:36:35;;;;;;;13.57;12.47;;;38.00;23.50;;;;;;5110602;28;20478;-47
2022/03/22 10:39:09;;;;;;;12.80;11.90;;;38.40;23.30;;;;;;5109942;28;20411;-47
2022/03/22 10:41:41;;;;;;;13.23;12.23;;;38.70;23.40;;;;;;5110597;28;20444;-47
2022/03/22 10:44:17;;;;;;;12.90;11.90;;;39.10;22.90;;;;;;5108115;28;20645;-47
2022/03/22 10:46:43;;;;;;;14.57;13.50;;;39.40;22.90;;;;;;5109678;28;21020;-47
2022/03/22 10:49:12;;;;;;;11.43;10.63;;;39.80;22.30;;;;;;5109522;28;20731;-47
2022/03/22 10:51:44;;;;;;;14.00;13.00;;;40.00;22.70;;;;;;5109971;28;20562;-47
2022/03/22 10:54:18;;;;;;;13.43;12.43;;;40.10;22.00;;;;;;5110291;28;20414;-47
2022/03/22 10:56:55;;;;;;;15.23;14.13;;;40.20;22.70;;;;;;5108224;28;20971;-47
2022/03/22 10:59:23;;;;;;;12.07;11.17;;;40.50;21.70;;;;;;5110598;28;20427;-43
2022/03/22 11:01:49;;;;;;;12.70;11.80;;;40.70;22.30;;;;;;5111361;28;20880;-41
2022/03/22 11:04:16;;;;;;;13.00;11.83;;;41.00;22.30;;;;;;5112053;28;20436;-40
2022/03/22 11:06:43;;;;;;;15.97;14.77;;;40.90;22.20;;;;;;5110507;28;20828;-40
2022/03/22 11:09:09;;;;;;;15.73;14.40;;;40.80;21.90;;;;;;5111074;28;20675;-41
2022/03/22 11:11:36;;;;;;;13.50;12.40;;;40.90;21.90;;;;;;5109879;28;20464;-42
2022/03/22 11:14:02;;;;;;;14.83;13.73;;;40.80;22.60;;;;;;5109053;28;20181;-43
2022/03/22 11:16:31;;;;;;;13.20;12.20;;;40.80;22.20;;;;;;5110514;28;20485;-42
2022/03/22 11:19:01;;;;;;;16.17;15.00;;;40.80;22.30;;;;;;5108305;28;20424;-41
2022/03/22 11:21:28;;;;;;;15.07;14.07;;;40.80;21.90;;;;;;5110084;28;20714;-43
2022/03/22 11:24:07;;;;;;;15.53;14.27;;;40.90;22.10;;;;;;5111615;28;20430;-41
2022/03/22 11:26:47;;;;;;;15.43;14.13;;;41.10;21.00;;;;;;5111612;28;20417;-43
2022/03/22 11:29:17;;;;;;;16.37;15.23;;;41.00;21.20;;;;;;5113319;28;20797;-43
2022/03/22 11:34:08;;;;;;;17.10;15.90;;;41.20;20.80;;;;;;5117431;28;20415;-41
2022/03/22 11:34:30;;;;;;;16.70;15.40;;;41.40;20.70;;;;;;5116675;28;20439;-42
2022/03/22 11:36:58;;;;;;;13.60;12.63;;;41.30;21.00;;;;;;5113601;28;20770;-42
2022/03/22 11:42:21;;;;;;;15.40;14.30;;;41.30;21.70;;;;;;5071367;28;20419;-44
2022/03/22 11:45:05;;;;;;;13.87;12.77;;;41.40;21.00;;;;;;5108365;28;20531;-42
2022/03/22 11:47:41;;;;;;;16.27;14.57;;;41.30;21.60;;;;;;5110728;28;20416;-42
2022/03/22 11:50:17;;;;;;;15.87;14.47;;;41.60;21.00;;;;;;5112007;28;20812;-42
2022/03/22 11:52:44;;;;;;;14.50;13.40;;;41.40;21.20;;;;;;5113782;28;20410;-44
2022/03/22 11:55:12;;;;;;;17.00;15.70;;;41.80;21.20;;;;;;5097142;28;20426;-43
2022/03/22 11:58:13;;;;;;;17.23;15.53;;;41.90;20.50;;;;;;5114239;28;20574;-41
2022/03/22 12:00:46;;;;;;;16.33;15.13;;;42.10;20.70;;;;;;5089025;28;20921;-40
2022/03/22 12:03:17;;;;;;;15.50;14.30;;;42.30;20.40;;;;;;5110368;28;20484;-43
2022/03/22 12:05:43;;;;;;;15.23;13.93;;;42.30;20.80;;;;;;5114272;28;20419;-42
2022/03/22 12:08:15;;;;;;;16.27;14.97;;;42.50;20.80;;;;;;5112957;28;20663;-43
2022/03/22 12:10:48;;;;;;;16.73;15.53;;;42.50;20.40;;;;;;5113875;28;20477;-42
2022/03/22 12:13:15;;;;;;;18.70;17.30;;;42.40;20.40;;;;;;5097525;28;20882;-43
2022/03/22 12:15:41;;;;;;;17.47;16.13;;;42.50;20.30;;;;;;5093713;28;20450;-43
2022/03/22 12:18:09;;;;;;;16.90;15.70;;;42.50;20.20;;;;;;5094273;28;20523;-42
2022/03/22 12:20:35;;;;;;;13.50;12.30;;;42.40;19.90;;;;;;5093259;28;20961;-43
2022/03/22 12:23:06;;;;;;;15.60;14.30;;;42.30;20.90;;;;;;5088671;28;20515;-42
2022/03/22 12:25:33;;;;;;;16.53;15.37;;;42.50;20.80;;;;;;5089149;28;20426;-42
2022/03/22 12:28:04;;;;;;;17.67;16.33;;;42.60;20.20;;;;;;5093428;28;20486;-42
2022/03/22 12:30:33;;;;;;;15.57;14.47;;;42.60;20.40;;;;;;5100366;28;20462;-42
2022/03/22 12:33:02;;;;;;;14.50;13.50;;;42.80;20.20;;;;;;5090605;28;20474;-42
2022/03/22 12:35:28;;;;;;;15.10;13.90;;;42.80;20.30;;;;;;5106839;28;20495;-42
2022/03/22 12:37:54;;;;;;;16.10;14.90;;;43.00;19.90;;;;;;5112292;28;20970;-42
2022/03/22 12:40:21;;;;;;;12.83;11.87;;;43.00;20.10;;;;;;5112003;28;20431;-41
2022/03/22 12:42:49;;;;;;;15.13;13.93;;;42.80;20.60;;;;;;5112114;28;20420;-42
2022/03/22 12:45:15;;;;;;;14.10;13.10;;;42.80;20.30;;;;;;5112220;28;20429;-43
2022/03/22 12:47:41;;;;;;;14.67;13.67;;;42.80;20.50;;;;;;5111253;28;20695;-45
2022/03/22 12:50:09;;;;;;;13.43;12.47;;;43.00;20.50;;;;;;5110806;28;20329;-42
2022/03/22 12:52:36;;;;;;;14.60;13.50;;;43.00;20.80;;;;;;5111019;28;20431;-42
2022/03/22 12:55:02;;;;;;;14.90;13.60;;;43.10;20.50;;;;;;5112580;28;20731;-42
2022/03/22 12:57:29;;;;;;;15.97;14.63;;;43.10;20.40;;;;;;5113619;28;20823;-43
2022/03/22 12:59:56;;;;;;;15.63;14.43;;;43.10;20.20;;;;;;5113994;28;20504;-42
2022/03/22 13:02:22;;;;;;;15.03;13.93;;;43.20;20.10;;;;;;5115415;28;20422;-43
2022/03/22 13:04:50;;;;;;;13.90;13.00;;;43.10;20.20;;;;;;5114028;28;20433;-43
2022/03/22 13:07:27;;;;;;;14.67;13.67;;;43.30;20.30;;;;;;5115328;28;20746;-44
2022/03/22 13:12:43;;;;;;;16.23;15.03;;;43.60;20.00;;;;;;5113049;28;20861;-42